• Join FlightAware (Why Join?)
  • Login
  • US Flag 
11:52AM EDT


 

Airport Tracker/Info


-or-


 

Live Flight TrackerFlight Track Log ✈ N500TC ✈ 21-Oct-2013 ✈ KSOP - KEQY

Flight Track Log - Related Links

Times and Time Zones

All times are in EDT time to prevent confusion due to time zone crossing. See the N500TC flight status page for this flight to view local times or setup timezone preferences in your user account.

Time Position Orientation Groundspeed Altitude Reporting Facility
EDT Latitude Longitude Course Direction KTS MPH feet Rate Location/Type
05:42PM 35.1946 -79.6093 257° West  Level FlightAware Approximate
05:43PM 35.1873 -79.6461 256° West  Level FlightAware Approximate
05:44PM 35.1800 -79.6829 256° West  Level FlightAware Approximate
05:45PM 35.1727 -79.7197 256° West  Level FlightAware Approximate
05:45PM 35.1461 -79.8503 258° West 100 115 4,400  Level Atlanta Center
05:45PM 35.1425 -79.8681 256° West 97 112 4,500 120 Climbing Atlanta Center
05:46PM 35.1654 -79.7565 256° West  Level FlightAware Approximate
05:46PM 35.1394 -79.8989 263° West 91 105 4,600  Level Atlanta Center
05:47PM 35.1592 -79.7936 259° West  Level Estimated
05:47PM 35.1342 -79.9294 258° West 88 101 4,600  Level Atlanta Center
05:48PM 35.1530 -79.8307 258° West  Level FlightAware Approximate
05:48PM 35.1267 -79.9578 252° West 91 105 4,500  Level Atlanta Center
05:49PM 35.1467 -79.8678 258° West  Level FlightAware Approximate
05:49PM 35.1236 -79.9911 264° West 93 107 4,600  Level Atlanta Center
05:50PM 35.1405 -79.9048 258° West  Level FlightAware Approximate
05:50PM 35.1164 -80.0219 254° West 92 106 4,500  Level Atlanta Center
05:51PM 35.1089 -80.0528 253° West 93 107 4,500  Level Atlanta Center
05:52PM 35.1058 -80.0808 262° West 89 102 4,600  Climbing Atlanta Center
05:53PM 35.1006 -80.1114 258° West 89 102 4,600  Level Atlanta Center
05:54PM 35.0931 -80.1422 253° West 90 104 4,600 -60 Level Atlanta Center
05:55PM 35.0858 -80.1756 255° West 93 107 4,500  Descending Atlanta Center
05:56PM 35.0847 -80.2061 267° West 92 106 4,600  Climbing Atlanta Center
05:57PM 35.0814 -80.2342 262° West 92 106 4,600 -60 Level Atlanta Center
05:58PM 35.0739 -80.2650 253° West 95 109 4,500 -60 Descending Atlanta Center
05:59PM 35.0708 -80.2981 264° West 97 112 4,500 -120 Level Atlanta Center
06:00PM 35.0678 -80.3339 264° West 99 114 4,300 -240 Descending Atlanta Center
06:01PM 35.0603 -80.3672 255° West 102 117 4,100 -180 Descending Atlanta Center
06:02PM 35.0594 -80.4028 268° West 101 116 4,000 -60 Descending Atlanta Center
06:03PM 35.0539 -80.4308 256° West 96 110 4,000  Level Atlanta Center